KOKC/OKC METAR and TAF weather

Enter ICAO airport designator
Station Type Date Time Source
KOKC METAR 2019/09/21 04:52 UTC NOAA

KOKC 210452Z 22014G22KT 7SM -RA SCT110 OVC140 21/20 A3001 RMK AO2 RAB24 TSB06E23 SLP151 P0001 T02060200


Station Type Date Time Source
KOKC Decoded METAR 2019/09/21 04:52 UTC NOAA

WILL ROGERS WORLD AIRPORT, OK, United States (KOKC) 35-23N 97-36W 390M
Sep 21, 2019 - 12:52 AM EDT / 2019.09.21 0452 UTC
Wind: from the SW (220 degrees) at 16 MPH (14 KT) gusting to 25 MPH (22 KT):0
Visibility: 7 mile(s):0
Sky conditions: overcast
Weather: light rain
Precipitation last hour: 0.01 inches
Temperature: 69.1 F (20.6 C)
Dew Point: 68.0 F (20.0 C)
Relative Humidity: 96%
Pressure (altimeter): 30.01 in. Hg (1016 hPa)
ob: KOKC 210452Z 22014G22KT 7SM -RA SCT110 OVC140 21/20 A3001 RMK AO2 RAB24 TSB06E23 SLP151 P0001 T02060200
cycle: 5

Station Type Date Time Source
KOKC TAF 2019/09/20 18:33 UTC NOAA

TAF KOKC 201730Z 2018/2118 16007KT P6SM FEW015 BKN025
FM201900 16011KT P6SM BKN050 OVC100
FM211200 17013G19KT 6SM BR BKN015

Example: see airport list